Oddville, Kentucky
Current Conditions -  °F | °C
As of 6:55 PM on Saturday 22 Nov 2014 (Local Time) from KIOB Reporting Station
Clear Clear  
Wind Chill: 52°   Ceiling: Unl
Heat Index: 52°   Visibility: 10mi
Dew Point: 32°   Wind: 5mph
Humidity: 47%   Direction: 190°S
Pressure: 30.15"   Gusts: NA
Location:  38.4145°N, 84.2859°W
Report Text: KIOB 222355Z AUTO 19004KT 10SM CLR 11/00 A3015 RMK AO2
Loading
Personal Weather Stations






























Interactive Weather Map New forecast layout! Learn more

10-Day Weather Forecast

Advertisements
Track Severe Weather on mobile